.
WxDataArchive / Data Records for 2011-10-15
2011-10-14 October 2011 2011-10-16

Data Records for Saturday, 15 October 2011

Time	Temp	Chill	HIndex	Humid	Dewpt	 Wind 	HiWind	WindDir	Rain 	Barom 
-----	----	-----	------	-----	-----	------	------	-------	-----	----- 
00:00	53.1	53.1	53.1	62	40.4	1	4	315	0.00	29.631 
00:05	53.1	53.1	53.1	62	40.4	1	4	292	0.00	29.631 
00:10	52.9	52.9	52.9	63	40.7	1	4	315	0.00	29.631 
00:15	52.9	52.9	52.9	63	40.7	2	4	248	0.00	29.633 
00:20	52.9	52.9	52.9	63	40.7	2	5	315	0.00	29.633 
00:25	52.9	52.9	52.9	63	40.7	2	4	270	0.00	29.633 
00:30	52.8	52.8	52.8	63	40.6	1	4	315	0.00	29.628 
00:35	52.6	52.6	52.6	64	40.8	3	9	270	0.00	29.628 
00:40	52.5	52.5	52.5	64	40.7	2	5	270	0.00	29.628 
00:45	52.3	52.3	52.3	64	40.5	1	3	315	0.00	29.627 
00:50	52.2	52.2	52.2	65	40.8	1	4	270	0.00	29.627 
00:55	51.9	51.9	51.9	65	40.5	1	3	270	0.00	29.627 
01:00	51.7	51.7	51.7	66	40.7	1	4	270	0.00	29.630 
01:05	51.7	51.7	51.7	67	41.1	1	6	270	0.00	29.630 
01:10	51.7	51.7	51.7	67	41.1	1	3	270	0.00	29.630 
01:15	51.6	51.6	51.6	66	40.6	2	5	270	0.00	29.633 
01:20	51.4	51.4	51.4	66	40.4	2	5	292	0.00	29.633 
01:25	51.1	51.1	51.1	67	40.5	1	3	292	0.00	29.633 
01:30	50.8	50.8	50.8	67	40.2	1	3	292	0.00	29.633 
01:35	50.5	50.5	50.5	68	40.3	0	3	292	0.00	29.633 
01:40	50.4	50.4	50.4	69	40.6	1	3	315	0.00	29.633 
01:45	50.2	50.2	50.2	69	40.4	1	2	315	0.00	29.639 
01:50	50.1	50.1	50.1	70	40.7	1	5	248	0.00	29.639 
01:55	49.8	49.8	49.8	71	40.8	1	5	270	0.00	29.639 
02:00	49.6	49.6	49.6	72	40.9	0	2	270	0.00	29.637 
02:05	49.4	49.4	49.4	72	40.8	0	1	270	0.00	29.637 
02:10	49.1	49.1	49.1	73	40.8	0	0	---	0.00	29.637 
02:15	48.8	48.8	48.8	74	40.9	0	0	---	0.00	29.636 
02:20	48.5	48.5	48.5	75	40.9	0	1	270	0.00	29.636 
02:25	48.2	48.2	48.2	75	40.7	0	0	---	0.00	29.636 
02:30	47.9	47.9	47.9	76	40.7	0	0	---	0.00	29.638 
02:35	47.6	47.6	47.6	77	40.8	0	0	---	0.00	29.638 
02:40	47.3	47.3	47.3	77	40.5	0	0	---	0.00	29.638 
02:45	47.0	47.0	47.0	78	40.5	0	0	---	0.00	29.638 
02:50	47.0	47.0	47.0	79	40.8	0	2	270	0.00	29.638 
02:55	47.3	47.3	47.3	79	41.1	0	2	270	0.00	29.638 
03:00	47.9	47.9	47.9	78	41.4	1	4	270	0.00	29.638 
03:05	48.6	48.6	48.6	76	41.4	1	6	270	0.00	29.638 
03:10	49.1	49.1	49.1	74	41.2	1	4	292	0.00	29.638 
03:15	49.2	49.2	49.2	73	40.9	1	4	270	0.00	29.637 
03:20	49.2	49.2	49.2	73	40.9	1	5	270	0.00	29.637 
03:25	49.4	49.4	49.4	73	41.1	1	7	248	0.00	29.637 
03:30	49.4	49.4	49.4	72	40.8	2	5	270	0.00	29.637 
03:35	49.4	49.4	49.4	72	40.8	2	5	270	0.00	29.637 
03:40	49.5	49.5	49.5	71	40.5	2	4	270	0.00	29.637 
03:45	49.5	49.5	49.5	71	40.5	1	5	270	0.00	29.636 
03:50	49.4	49.4	49.4	71	40.4	2	6	270	0.00	29.636 
03:55	49.4	49.4	49.4	71	40.4	2	5	270	0.00	29.636 
04:00	49.4	49.4	49.4	71	40.4	2	5	270	0.00	29.641 
04:05	49.2	49.2	49.2	71	40.2	2	5	270	0.00	29.641 
04:10	49.2	49.2	49.2	71	40.2	1	5	270	0.00	29.641 
04:15	49.2	49.2	49.2	70	39.8	2	5	270	0.00	29.644 
04:20	49.1	49.1	49.1	70	39.7	3	6	270	0.00	29.644 
04:25	49.1	49.1	49.1	70	39.7	2	7	248	0.00	29.644 
04:30	49.1	49.1	49.1	70	39.7	1	4	248	0.00	29.642 
04:35	48.9	48.9	48.9	70	39.6	2	6	248	0.00	29.642 
04:40	48.9	48.9	48.9	70	39.6	2	5	248	0.00	29.642 
04:45	48.8	48.8	48.8	70	39.5	2	5	270	0.00	29.645 
04:50	48.8	48.8	48.8	70	39.5	2	6	248	0.00	29.645 
04:55	48.8	48.8	48.8	71	39.8	2	6	270	0.00	29.645 
05:00	48.8	48.8	48.8	71	39.8	3	10	270	0.00	29.651 
05:05	48.6	48.6	48.6	71	39.6	3	9	248	0.00	29.651 
05:10	48.8	48.8	48.8	71	39.8	3	7	270	0.00	29.651 
05:15	48.8	48.8	48.8	71	39.8	3	7	270	0.00	29.652 
05:20	48.6	48.6	48.6	71	39.6	2	6	270	0.00	29.652 
05:25	48.6	48.6	48.6	71	39.6	3	6	248	0.00	29.652 
05:30	48.5	48.5	48.5	72	39.9	2	6	292	0.00	29.655 
05:35	48.5	48.5	48.5	72	39.9	2	5	270	0.00	29.655 
05:40	48.3	48.3	48.3	72	39.7	2	4	270	0.00	29.655 
05:45	48.2	48.2	48.2	73	40.0	2	4	248	0.00	29.662 
05:50	48.2	48.2	48.2	73	40.0	2	6	270	0.00	29.662 
05:55	48.0	48.0	48.0	73	39.8	2	6	248	0.00	29.662 
06:00	48.0	48.0	48.0	73	39.8	2	6	270	0.00	29.662 
06:05	48.0	48.0	48.0	74	40.1	3	7	270	0.00	29.662 
06:10	48.0	48.0	48.0	74	40.1	3	9	270	0.00	29.662 
06:15	47.9	47.9	47.9	74	40.0	2	6	248	0.00	29.666 
06:20	47.7	47.7	47.7	74	39.8	2	7	270	0.00	29.666 
06:25	47.7	47.7	47.7	75	40.2	3	9	248	0.00	29.666 
06:30	47.7	47.7	47.7	75	40.2	2	6	270	0.00	29.668 
06:35	47.6	46.1	47.6	75	40.1	4	7	270	0.00	29.668 
06:40	47.6	47.6	47.6	75	40.1	2	6	248	0.00	29.668 
06:45	47.4	47.4	47.4	75	39.9	2	5	270	0.00	29.672 
06:50	47.4	47.4	47.4	76	40.2	2	9	270	0.00	29.672 
06:55	47.3	47.3	47.3	76	40.1	2	6	270	0.00	29.672 
07:00	47.3	47.3	47.3	76	40.1	3	7	270	0.00	29.675 
07:05	47.3	47.3	47.3	76	40.1	2	6	270	0.00	29.675 
07:10	47.3	47.3	47.3	76	40.1	2	6	270	0.00	29.675 
07:15	47.3	47.3	47.3	76	40.1	3	6	270	0.00	29.685 
07:20	47.1	47.1	47.1	76	39.9	2	6	270	0.00	29.685 
07:25	47.3	47.3	47.3	76	40.1	3	7	270	0.00	29.685 
07:30	47.3	47.3	47.3	76	40.1	3	6	270	0.00	29.686 
07:35	47.3	47.3	47.3	76	40.1	3	6	270	0.00	29.686 
07:40	47.1	47.1	47.1	76	39.9	2	5	270	0.00	29.686 
07:45	47.1	47.1	47.1	77	40.3	2	7	270	0.00	29.687 
07:50	47.1	47.1	47.1	77	40.3	3	8	270	0.00	29.687 
07:55	47.0	47.0	47.0	77	40.2	3	7	270	0.00	29.687 
08:00	47.0	47.0	47.0	77	40.2	3	7	270	0.00	29.689 
08:05	47.0	45.4	47.0	77	40.2	4	9	270	0.00	29.689 
08:10	47.0	45.4	47.0	77	40.2	4	11	270	0.00	29.689 
08:15	47.0	47.0	47.0	77	40.2	3	7	270	0.00	29.691 
08:20	47.0	45.4	47.0	77	40.2	4	11	270	0.00	29.691 
08:25	47.0	45.4	47.0	77	40.2	4	7	270	0.00	29.691 
08:30	46.8	46.8	46.8	77	40.0	3	10	270	0.00	29.701 
08:35	46.7	45.1	46.7	77	39.9	4	10	270	0.00	29.701 
08:40	46.7	45.1	46.7	77	39.9	4	7	270	0.00	29.701 
08:45	46.7	45.1	46.7	77	39.9	4	9	270	0.00	29.705 
08:50	46.7	46.7	46.7	77	39.9	3	7	270	0.00	29.705 
08:55	46.8	46.8	46.8	77	40.0	3	8	270	0.00	29.705 
09:00	46.8	46.8	46.8	77	40.0	3	9	270	0.00	29.708 
09:05	47.0	47.0	47.0	77	40.2	3	6	248	0.00	29.708 
09:10	47.1	47.1	47.1	77	40.3	3	9	270	0.00	29.708 
09:15	47.4	47.4	47.4	76	40.2	3	7	270	0.00	29.721 
09:20	47.6	46.1	47.6	75	40.1	4	12	270	0.00	29.721 
09:25	47.7	46.2	47.7	75	40.2	4	9	270	0.00	29.721 
09:30	47.9	47.9	47.9	75	40.4	3	9	270	0.00	29.725 
09:35	48.0	46.6	48.0	75	40.5	4	10	270	0.00	29.725 
09:40	48.3	46.9	48.3	74	40.4	4	10	270	0.00	29.725 
09:45	48.6	48.6	48.6	74	40.7	3	7	270	0.00	29.734 
09:50	48.8	48.8	48.8	73	40.5	3	7	270	0.00	29.734 
09:55	49.1	47.8	49.1	72	40.5	4	10	270	0.00	29.734 
10:00	49.4	48.2	49.4	71	40.4	4	10	270	0.00	29.737 
10:05	49.8	48.6	49.8	70	40.4	4	7	270	0.00	29.737 
10:10	49.8	48.6	49.8	69	40.0	4	7	270	0.00	29.737 
10:15	50.1	50.1	50.1	68	40.0	4	9	270	0.00	29.742 
10:20	50.4	50.4	50.4	67	39.9	5	9	270	0.00	29.742 
10:25	50.5	50.5	50.5	66	39.6	5	10	270	0.00	29.742 
10:30	51.0	51.0	51.0	66	40.0	3	7	270	0.00	29.748 
10:35	51.1	51.1	51.1	64	39.4	5	11	270	0.00	29.748 
10:40	51.6	51.6	51.6	64	39.8	5	10	270	0.00	29.748 
10:45	51.6	51.6	51.6	63	39.4	5	11	270	0.00	29.749 
10:50	51.7	51.7	51.7	62	39.1	4	8	270	0.00	29.749 
10:55	51.7	51.7	51.7	62	39.1	5	10	270	0.00	29.749 
11:00	51.7	51.7	51.7	62	39.1	5	10	270	0.00	29.759 
11:05	52.0	52.0	52.0	61	39.0	6	11	270	0.00	29.759 
11:10	52.3	52.3	52.3	61	39.3	5	11	270	0.00	29.759 
11:15	52.3	52.3	52.3	59	38.4	5	11	270	0.00	29.758 
11:20	52.5	52.5	52.5	60	39.0	5	11	270	0.00	29.758 
11:25	53.1	53.1	53.1	59	39.2	3	9	270	0.00	29.758 
11:30	53.6	53.6	53.6	57	38.7	5	11	270	0.00	29.764 
11:35	53.5	53.5	53.5	56	38.2	6	11	270	0.00	29.764 
11:40	53.8	53.8	53.8	58	39.4	4	10	270	0.00	29.764 
11:45	53.9	53.9	53.9	56	38.6	6	12	270	0.00	29.767 
11:50	54.1	54.1	54.1	54	37.8	6	11	270	0.00	29.767 
11:55	54.1	54.1	54.1	54	37.8	6	12	270	0.00	29.767 
12:00	54.4	54.4	54.4	55	38.6	5	10	270	0.00	29.770 
12:05	54.8	54.8	54.8	53	38.0	5	9	270	0.00	29.770 
12:10	55.1	55.1	55.1	55	39.2	3	6	270	0.00	29.770 
12:15	55.3	55.3	55.3	52	38.0	5	11	270	0.00	29.778 
12:20	54.8	54.8	54.8	51	37.0	6	11	270	0.00	29.778 
12:25	54.7	54.7	54.7	51	36.9	6	13	270	0.00	29.778 
12:30	55.3	55.3	55.3	53	38.5	4	7	248	0.00	29.779 
12:35	56.0	56.0	56.0	51	38.1	3	10	315	0.00	29.779 
12:40	56.0	56.0	56.0	50	37.6	5	10	270	0.00	29.779 
12:45	56.3	56.3	56.3	50	37.9	4	7	270	0.00	29.779 
12:50	56.2	56.2	56.2	47	36.2	7	12	270	0.00	29.779 
12:55	56.0	56.0	56.0	48	36.6	6	11	270	0.00	29.779 
13:00	56.2	56.2	56.2	47	36.2	5	12	270	0.00	29.778 
13:05	56.5	56.5	56.5	47	36.5	5	11	270	0.00	29.778 
13:10	56.7	56.7	56.7	46	36.2	5	11	270	0.00	29.778 
13:15	57.0	57.0	57.0	46	36.4	5	9	270	0.00	29.778 
13:20	57.3	57.3	57.3	44	35.6	6	10	270	0.00	29.778 
13:25	57.3	57.3	57.3	43	35.0	6	11	270	0.00	29.778 
13:30	57.6	57.6	57.6	43	35.3	6	13	270	0.00	29.778 
13:35	57.6	57.6	57.6	43	35.3	6	11	270	0.00	29.778 
13:40	57.8	57.8	57.8	42	34.9	6	11	270	0.00	29.778 
13:45	58.1	58.1	58.1	41	34.5	5	9	270	0.00	29.778 
13:50	58.4	58.4	58.4	40	34.2	6	12	270	0.00	29.778 
13:55	58.7	58.7	58.7	40	34.4	5	9	270	0.00	29.778 
14:00	58.9	58.9	58.9	40	34.6	5	10	270	0.00	29.777 
14:05	58.9	58.9	58.9	37	32.7	6	13	270	0.00	29.777 
14:10	58.9	58.9	58.9	39	34.0	5	10	270	0.00	29.777 
14:15	59.2	59.2	59.2	37	32.9	5	12	292	0.00	29.774 
14:20	59.3	59.3	59.3	39	34.3	4	10	270	0.00	29.774 
14:25	59.6	59.6	59.6	36	32.6	5	13	270	0.00	29.774 
14:30	59.5	59.5	59.5	36	32.5	5	10	270	0.00	29.774 
14:35	59.8	59.8	59.8	37	33.5	4	11	270	0.00	29.774 
14:40	59.9	59.9	59.9	37	33.6	5	11	270	0.00	29.774 
14:45	59.9	59.9	59.9	36	32.9	6	13	270	0.00	29.776 
14:50	59.9	59.9	59.9	35	32.2	6	14	270	0.00	29.776 
14:55	59.8	59.8	59.8	35	32.1	6	11	270	0.00	29.776 
15:00	60.4	60.4	60.4	37	34.0	4	8	270	0.00	29.773 
15:05	60.7	60.7	60.7	34	32.2	4	8	270	0.00	29.773 
15:10	60.9	60.9	60.9	33	31.6	4	9	270	0.00	29.773 
15:15	60.9	60.9	60.9	33	31.6	5	10	270	0.00	29.775 
15:20	60.7	60.7	60.7	31	29.9	6	11	270	0.00	29.775 
15:25	60.5	60.5	60.5	33	31.3	6	11	270	0.00	29.775 
15:30	60.7	60.7	60.7	32	30.7	5	10	270	0.00	29.779 
15:35	60.9	60.9	60.9	32	30.8	5	11	270	0.00	29.779 
15:40	60.9	60.9	60.9	31	30.1	6	10	270	0.00	29.779 
15:45	61.0	61.0	61.0	33	31.7	4	11	270	0.00	29.784 
15:50	61.2	61.2	61.2	32	31.1	5	12	270	0.00	29.784 
15:55	61.3	61.3	61.3	33	32.0	5	10	270	0.00	29.784 
16:00	61.2	61.2	61.2	32	31.1	6	13	270	0.00	29.788 
16:05	61.2	61.2	61.2	33	31.9	6	11	270	0.00	29.788 
16:10	61.0	61.0	61.0	33	31.7	6	12	270	0.00	29.788 
16:15	61.0	61.0	61.0	32	30.9	6	12	270	0.00	29.792 
16:20	61.2	61.2	61.2	32	31.1	4	10	270	0.00	29.792 
16:25	61.2	61.2	61.2	32	31.1	4	9	270	0.00	29.792 
16:30	61.2	61.2	61.2	33	31.9	4	9	270	0.00	29.794 
16:35	61.0	61.0	61.0	31	30.2	6	11	270	0.00	29.794 
16:40	60.9	60.9	60.9	32	30.8	5	10	270	0.00	29.794 
16:45	60.9	60.9	60.9	32	30.8	5	10	270	0.00	29.796 
16:50	60.9	60.9	60.9	33	31.6	5	13	270	0.00	29.796 
16:55	60.7	60.7	60.7	33	31.4	5	10	270	0.00	29.796 
17:00	60.5	60.5	60.5	32	30.5	6	10	270	0.00	29.798 
17:05	60.5	60.5	60.5	31	29.7	6	10	270	0.00	29.798 
17:10	60.4	60.4	60.4	32	30.4	6	10	270	0.00	29.798 
17:15	60.2	60.2	60.2	32	30.2	6	12	270	0.00	29.803 
17:20	60.2	60.2	60.2	33	31.0	5	10	270	0.00	29.803 
17:25	60.2	60.2	60.2	34	31.7	4	10	270	0.00	29.803 
17:30	60.2	60.2	60.2	33	31.0	4	7	270	0.00	29.809 
17:35	60.2	60.2	60.2	35	32.4	3	6	270	0.00	29.809 
17:40	60.2	60.2	60.2	33	31.0	5	12	270	0.00	29.809 
17:45	59.9	59.9	59.9	33	30.7	5	10	270	0.00	29.811 
17:50	59.9	59.9	59.9	34	31.5	3	7	270	0.00	29.811 
17:55	59.8	59.8	59.8	34	31.4	4	8	270	0.00	29.811 
18:00	59.6	59.6	59.6	34	31.2	4	12	270	0.00	29.813 
18:05	59.5	59.5	59.5	35	31.8	4	10	270	0.00	29.813 
18:10	59.5	59.5	59.5	35	31.8	3	9	270	0.00	29.813 
18:15	59.3	59.3	59.3	35	31.7	3	6	270	0.00	29.821 
18:20	59.2	59.2	59.2	35	31.6	4	9	270	0.00	29.821 
18:25	59.0	59.0	59.0	35	31.4	4	10	270	0.00	29.821 
18:30	58.9	58.9	58.9	35	31.3	5	10	270	0.00	29.826 
18:35	58.9	58.9	58.9	35	31.3	4	7	270	0.00	29.826 
18:40	58.6	58.6	58.6	35	31.0	3	6	270	0.00	29.826 
18:45	58.4	58.4	58.4	36	31.6	3	4	270	0.00	29.832 
18:50	58.3	58.3	58.3	35	30.8	4	11	270	0.00	29.832 
18:55	58.3	58.3	58.3	36	31.5	3	8	270	0.00	29.832 
19:00	58.1	58.1	58.1	36	31.3	3	6	270	0.00	29.835 
19:05	57.8	57.8	57.8	37	31.7	3	6	270	0.00	29.835 
19:10	57.6	57.6	57.6	38	32.2	2	6	270	0.00	29.835 
19:15	57.3	57.3	57.3	38	31.9	1	4	270	0.00	29.843 
19:20	57.2	57.2	57.2	39	32.5	2	4	270	0.00	29.843 
19:25	57.0	57.0	57.0	39	32.3	1	4	270	0.00	29.843 
19:30	56.9	56.9	56.9	39	32.2	1	5	270	0.00	29.846 
19:35	56.6	56.6	56.6	40	32.6	1	4	270	0.00	29.846 
19:40	56.6	56.6	56.6	40	32.6	1	5	270	0.00	29.846 
19:45	56.3	56.3	56.3	41	32.9	1	3	270	0.00	29.851 
19:50	56.2	56.2	56.2	41	32.8	2	4	270	0.00	29.851 
19:55	56.2	56.2	56.2	41	32.8	2	5	270	0.00	29.851 
20:00	56.2	56.2	56.2	41	32.8	2	4	270	0.00	29.858 
20:05	56.2	56.2	56.2	41	32.8	2	4	270	0.00	29.858 
20:10	56.0	56.0	56.0	42	33.2	1	4	270	0.00	29.858 
20:15	55.9	55.9	55.9	43	33.7	1	3	270	0.00	29.861 
20:20	55.6	55.6	55.6	43	33.5	1	4	270	0.00	29.861 
20:25	55.4	55.4	55.4	44	33.9	0	2	270	0.00	29.861 
20:30	55.1	55.1	55.1	45	34.1	0	2	270	0.00	29.863 
20:35	54.8	54.8	54.8	46	34.4	0	3	270	0.00	29.863 
20:40	54.8	54.8	54.8	46	34.4	1	4	270	0.00	29.863 
20:45	54.8	54.8	54.8	46	34.4	1	4	270	0.00	29.863 
20:50	54.8	54.8	54.8	46	34.4	1	5	270	0.00	29.863 
20:55	54.8	54.8	54.8	47	35.0	1	3	248	0.00	29.863 
21:00	54.8	54.8	54.8	47	35.0	1	4	248	0.00	29.863 
21:05	54.8	54.8	54.8	47	35.0	1	4	248	0.00	29.863 
21:10	54.7	54.7	54.7	48	35.4	1	3	248	0.00	29.863 
21:15	54.5	54.5	54.5	48	35.2	1	4	248	0.00	29.861 
21:20	54.2	54.2	54.2	49	35.5	1	3	248	0.00	29.861 
21:25	54.1	54.1	54.1	50	35.9	1	4	248	0.00	29.861 
21:30	53.9	53.9	53.9	49	35.2	1	3	248	0.00	29.863 
21:35	53.9	53.9	53.9	50	35.7	1	3	248	0.00	29.863 
21:40	53.8	53.8	53.8	50	35.6	1	4	248	0.00	29.863 
21:45	53.8	53.8	53.8	50	35.6	1	4	270	0.00	29.865 
21:50	53.6	53.6	53.6	51	35.9	1	3	270	0.00	29.865 
21:55	53.6	53.6	53.6	51	35.9	1	3	270	0.00	29.865 
22:00	53.5	53.5	53.5	51	35.8	1	4	270	0.00	29.866 
22:05	53.3	53.3	53.3	51	35.6	0	2	270	0.00	29.866 
22:10	53.2	53.2	53.2	52	36.0	1	3	270	0.00	29.866 
22:15	53.2	53.2	53.2	52	36.0	1	4	270	0.00	29.863 
22:20	53.2	53.2	53.2	52	36.0	1	3	292	0.00	29.863 
22:25	53.1	53.1	53.1	52	35.9	0	1	292	0.00	29.863 
22:30	52.8	52.8	52.8	52	35.7	1	3	292	0.00	29.862 
22:35	52.8	52.8	52.8	52	35.7	1	4	292	0.00	29.862 
22:40	52.8	52.8	52.8	53	36.1	0	3	292	0.00	29.862 
22:45	52.8	52.8	52.8	53	36.1	1	4	292	0.00	29.861 
22:50	52.8	52.8	52.8	53	36.1	0	3	292	0.00	29.861 
22:55	52.6	52.6	52.6	53	36.0	1	4	292	0.00	29.861 
23:00	52.6	52.6	52.6	53	36.0	1	4	292	0.00	29.862 
23:05	52.5	52.5	52.5	53	35.9	1	3	292	0.00	29.862 
23:10	52.5	52.5	52.5	54	36.3	1	3	292	0.00	29.862 
23:15	52.3	52.3	52.3	54	36.2	0	3	292	0.00	29.864 
23:20	52.2	52.2	52.2	54	36.1	1	3	292	0.00	29.864 
23:25	52.2	52.2	52.2	54	36.1	1	4	248	0.00	29.864 
23:30	52.2	52.2	52.2	54	36.1	1	3	248	0.00	29.876 
23:35	52.0	52.0	52.0	54	35.9	1	4	248	0.00	29.876 
23:40	52.0	52.0	52.0	55	36.3	1	4	248	0.00	29.876 
23:45	51.9	51.9	51.9	55	36.2	1	4	248	0.00	29.884 
23:50	51.9	51.9	51.9	55	36.2	1	3	248	0.00	29.884 
23:55	51.7	51.7	51.7	56	36.5	0	3	248	0.00	29.884 

CoCoRaHS
IN-AL-39
A2 Web Hosting
Creative Commons License
GoDaddy
search engine by freefind advanced

loaded 2018-11-17 19:21:42 • last modified 2010-11-18 10:43:29
Privacy PolicyDisclaimer
• wx.awcolley.com is powered by PmWiki v.2002016 •
• all content (unless otherwise noted) © 2018 A W Colley